createdAt,value
2023-03-31T00:01:53.122Z,82.20
2023-03-31T00:04:26.948Z,82.30
2023-03-31T00:06:54.763Z,82.10
2023-03-31T00:09:24.663Z,82.20
2023-03-31T00:11:52.146Z,82.40
2023-03-31T00:14:19.828Z,82.60
2023-03-31T00:16:46.800Z,82.50
2023-03-31T00:19:20.822Z,82.50
2023-03-31T00:21:48.809Z,82.60
2023-03-31T00:24:16.537Z,82.80
2023-03-31T00:26:44.066Z,82.80
2023-03-31T00:29:12.426Z,82.70
2023-03-31T00:31:39.773Z,82.80
2023-03-31T00:34:06.756Z,82.90
2023-03-31T00:36:36.997Z,82.80
2023-03-31T00:39:08.976Z,82.70
2023-03-31T00:41:36.776Z,82.60
2023-03-31T00:44:13.291Z,82.90
2023-03-31T00:46:55.846Z,82.90
2023-03-31T00:49:23.025Z,82.80
2023-03-31T00:51:51.222Z,82.90
2023-03-31T00:54:19.728Z,82.90
2023-03-31T00:56:48.520Z,82.90
2023-03-31T00:59:15.985Z,82.90
2023-03-31T01:01:45.107Z,82.80
2023-03-31T01:04:13.498Z,82.90
2023-03-31T01:06:46.840Z,83.10
2023-03-31T01:09:15.016Z,83.10
2023-03-31T01:11:41.995Z,83.20
2023-03-31T01:14:09.962Z,83.10
2023-03-31T01:16:40.176Z,83.00
2023-03-31T01:19:16.430Z,83.00
2023-03-31T01:21:59.997Z,83.00
2023-03-31T01:25:03.930Z,82.90
2023-03-31T01:27:33.601Z,82.70
2023-03-31T01:30:00.531Z,82.60
2023-03-31T01:32:46.496Z,82.40
2023-03-31T01:35:25.601Z,82.50
2023-03-31T01:38:11.116Z,82.50
2023-03-31T01:40:38.048Z,82.20
2023-03-31T01:43:05.072Z,82.30
2023-03-31T01:45:32.049Z,82.40
2023-03-31T01:48:07.060Z,82.30
2023-03-31T01:50:44.097Z,82.50
2023-03-31T01:53:11.037Z,82.70
2023-03-31T01:55:39.906Z,82.70
2023-03-31T01:58:06.911Z,82.60
2023-03-31T02:00:37.414Z,82.70
2023-03-31T02:03:08.242Z,82.30
2023-03-31T02:05:41.497Z,82.20
2023-03-31T02:08:11.003Z,82.20
2023-03-31T02:10:39.303Z,82.10
2023-03-31T02:13:07.252Z,82.00
2023-03-31T02:15:39.428Z,82.30
2023-03-31T02:18:11.742Z,82.30
2023-03-31T02:20:42.585Z,82.20
2023-03-31T02:23:12.065Z,82.40
2023-03-31T02:25:41.866Z,82.50
2023-03-31T02:28:10.805Z,82.50
2023-03-31T02:31:01.066Z,82.20
2023-03-31T02:33:28.084Z,82.00
2023-03-31T02:35:55.322Z,82.00
2023-03-31T02:38:22.446Z,82.20
2023-03-31T02:40:49.404Z,82.00
2023-03-31T02:43:16.411Z,82.10
2023-03-31T02:45:44.887Z,82.10
2023-03-31T02:48:17.876Z,81.90
2023-03-31T02:50:59.695Z,81.80
2023-03-31T02:53:38.791Z,81.70
2023-03-31T02:56:05.861Z,81.80
2023-03-31T02:58:36.924Z,81.60
2023-03-31T03:01:12.102Z,81.50
2023-03-31T03:03:59.172Z,81.40
2023-03-31T03:06:44.844Z,81.20
2023-03-31T03:09:14.934Z,81.10
2023-03-31T03:11:53.603Z,81.00
2023-03-31T03:14:39.293Z,81.40
2023-03-31T03:17:09.902Z,81.80
2023-03-31T03:19:36.854Z,82.00
2023-03-31T03:22:03.747Z,81.60
2023-03-31T03:24:34.609Z,81.20
2023-03-31T03:27:01.854Z,80.90
2023-03-31T03:29:28.875Z,80.90
2023-03-31T03:31:55.765Z,81.00
2023-03-31T03:34:22.711Z,81.00
2023-03-31T03:36:49.666Z,81.00
2023-03-31T03:39:16.761Z,81.10
2023-03-31T03:41:43.644Z,81.10
2023-03-31T03:44:10.549Z,81.10
2023-03-31T03:46:37.531Z,81.30
2023-03-31T03:49:04.468Z,81.30
2023-03-31T03:51:31.399Z,81.10
2023-03-31T03:53:58.251Z,81.00
2023-03-31T03:56:25.171Z,81.00
2023-03-31T03:58:52.157Z,80.80
2023-03-31T04:01:19.088Z,81.10
2023-03-31T04:03:46.045Z,81.40
2023-03-31T04:06:12.918Z,81.00
2023-03-31T04:08:39.843Z,81.30
2023-03-31T04:11:18.933Z,80.90
2023-03-31T04:13:46.974Z,80.40
2023-03-31T04:16:14.220Z,80.40
2023-03-31T04:18:44.211Z,80.50
2023-03-31T04:21:23.250Z,80.60
2023-03-31T04:23:58.933Z,80.80
2023-03-31T04:26:31.149Z,80.90
2023-03-31T04:29:00.899Z,81.00
2023-03-31T04:31:31.069Z,80.80
2023-03-31T04:34:02.725Z,80.40
2023-03-31T04:36:31.591Z,80.30
2023-03-31T04:38:58.791Z,80.30
2023-03-31T04:41:27.691Z,80.20
2023-03-31T04:43:54.841Z,80.20
2023-03-31T04:46:22.211Z,80.30
2023-03-31T04:48:49.528Z,80.50
2023-03-31T04:51:16.621Z,80.80
2023-03-31T04:53:43.610Z,80.70
2023-03-31T04:56:10.963Z,80.50
2023-03-31T04:58:38.137Z,80.90
2023-03-31T05:01:08.065Z,80.90
2023-03-31T05:03:35.181Z,80.80
2023-03-31T05:06:02.232Z,81.00
2023-03-31T05:08:29.269Z,80.70
2023-03-31T05:10:56.228Z,80.50
2023-03-31T05:13:23.221Z,80.50
2023-03-31T05:15:51.812Z,80.60
2023-03-31T05:18:18.924Z,80.70
2023-03-31T05:20:45.906Z,80.80
2023-03-31T05:23:13.082Z,80.80
2023-03-31T05:25:39.973Z,80.50
2023-03-31T05:28:07.012Z,80.30
2023-03-31T05:30:34.098Z,80.60
2023-03-31T05:33:01.240Z,80.10
2023-03-31T05:35:28.298Z,80.10
2023-03-31T05:37:55.731Z,80.40
2023-03-31T05:40:22.680Z,80.70
2023-03-31T05:42:49.600Z,80.70
2023-03-31T05:45:16.934Z,80.50
2023-03-31T05:47:43.906Z,80.60
2023-03-31T05:50:12.610Z,80.80
2023-03-31T05:52:41.570Z,80.80
2023-03-31T05:55:08.727Z,80.70
2023-03-31T05:57:35.644Z,80.60
2023-03-31T06:00:03.811Z,80.60
2023-03-31T06:02:31.540Z,80.80
2023-03-31T06:04:58.452Z,80.90
2023-03-31T06:07:25.439Z,81.00
2023-03-31T06:09:52.445Z,80.90
2023-03-31T06:12:19.464Z,80.70
2023-03-31T06:14:46.363Z,80.70
2023-03-31T06:17:13.243Z,80.80
2023-03-31T06:19:40.398Z,81.00
2023-03-31T06:22:07.366Z,81.00
2023-03-31T06:24:34.249Z,81.10
2023-03-31T06:27:01.533Z,80.90
2023-03-31T06:29:28.541Z,80.80
2023-03-31T06:31:56.357Z,80.80
2023-03-31T06:34:23.298Z,81.10
2023-03-31T06:36:50.261Z,81.20
2023-03-31T06:39:17.309Z,81.20
2023-03-31T06:41:44.235Z,81.10
2023-03-31T06:44:11.570Z,81.10
2023-03-31T06:46:38.515Z,81.10
2023-03-31T06:49:05.618Z,81.10
2023-03-31T06:51:32.823Z,81.20
2023-03-31T06:53:59.968Z,81.30
2023-03-31T06:56:28.373Z,81.40
2023-03-31T06:58:55.328Z,81.40
2023-03-31T07:01:22.337Z,81.50
2023-03-31T07:03:49.578Z,81.50
2023-03-31T07:06:16.708Z,81.50
2023-03-31T07:08:43.681Z,81.40
2023-03-31T07:11:10.990Z,81.30
2023-03-31T07:13:38.097Z,81.10
2023-03-31T07:16:05.554Z,81.00
2023-03-31T07:18:35.048Z,81.10
2023-03-31T07:21:02.659Z,81.10
2023-03-31T07:23:29.558Z,81.10
2023-03-31T07:25:56.643Z,81.00
2023-03-31T07:28:23.493Z,81.00
2023-03-31T07:30:50.808Z,81.20
2023-03-31T07:33:17.778Z,81.30
2023-03-31T07:35:44.753Z,81.40
2023-03-31T07:38:12.177Z,81.60
2023-03-31T07:40:39.663Z,81.60
2023-03-31T07:43:06.863Z,81.50
2023-03-31T07:45:33.876Z,81.60
2023-03-31T07:48:01.018Z,81.60
2023-03-31T07:50:28.141Z,81.50
2023-03-31T07:52:55.111Z,81.50
2023-03-31T07:55:24.072Z,81.60
2023-03-31T07:57:51.640Z,81.80
2023-03-31T08:00:19.180Z,81.80
2023-03-31T08:02:46.176Z,81.90
2023-03-31T08:05:14.741Z,81.90
2023-03-31T08:07:43.114Z,81.90
2023-03-31T08:10:12.842Z,81.90
2023-03-31T08:12:41.303Z,82.00
2023-03-31T08:15:08.824Z,82.10
2023-03-31T08:17:35.894Z,82.20
2023-03-31T08:20:07.528Z,82.20
2023-03-31T08:22:35.193Z,82.20
2023-03-31T08:25:02.181Z,82.30
2023-03-31T08:27:29.181Z,82.30
2023-03-31T08:29:56.192Z,82.30
2023-03-31T08:32:25.762Z,82.30
2023-03-31T08:34:53.371Z,82.30
2023-03-31T08:37:20.957Z,82.30
2023-03-31T08:39:47.829Z,82.30
2023-03-31T08:42:18.079Z,82.30
2023-03-31T08:44:46.963Z,82.50
2023-03-31T08:47:18.644Z,82.60
2023-03-31T08:49:52.753Z,82.60
2023-03-31T08:52:23.894Z,82.50
2023-03-31T08:54:53.523Z,82.50
2023-03-31T08:57:28.701Z,82.40
2023-03-31T08:59:58.984Z,82.30
2023-03-31T09:02:28.874Z,82.30
2023-03-31T09:05:07.230Z,82.30
2023-03-31T09:07:39.485Z,82.30
2023-03-31T09:10:09.566Z,82.40
2023-03-31T09:12:42.612Z,82.30
2023-03-31T09:15:16.173Z,82.30
2023-03-31T09:17:48.144Z,82.30
2023-03-31T09:20:38.659Z,82.30
2023-03-31T09:23:21.785Z,82.30
2023-03-31T09:25:49.163Z,82.20
2023-03-31T09:28:20.999Z,82.20
2023-03-31T09:30:51.555Z,82.30
2023-03-31T09:33:32.444Z,82.20
2023-03-31T09:36:00.489Z,82.20
2023-03-31T09:38:29.850Z,82.30
2023-03-31T09:41:01.039Z,82.50
2023-03-31T09:43:32.521Z,82.50
2023-03-31T09:46:09.095Z,82.40
2023-03-31T09:48:37.984Z,82.50
2023-03-31T09:51:06.845Z,82.50
2023-03-31T09:53:49.190Z,82.60
2023-03-31T09:56:31.729Z,82.70
2023-03-31T09:59:02.300Z,82.60
2023-03-31T10:01:29.656Z,82.80
2023-03-31T10:03:57.134Z,83.40
2023-03-31T10:06:24.501Z,83.50
2023-03-31T10:08:54.898Z,83.20
2023-03-31T10:11:22.361Z,83.00
2023-03-31T10:14:13.599Z,82.70
2023-03-31T10:16:49.760Z,82.10
2023-03-31T10:19:20.371Z,82.30
2023-03-31T10:21:48.934Z,82.00
2023-03-31T10:24:19.690Z,82.30
2023-03-31T10:26:52.518Z,82.60
2023-03-31T10:29:25.726Z,83.10
2023-03-31T10:31:52.841Z,83.20
2023-03-31T10:34:20.251Z,83.30
2023-03-31T10:36:48.500Z,83.80
2023-03-31T10:39:16.474Z,83.70
2023-03-31T10:41:43.957Z,83.10
2023-03-31T10:44:30.494Z,82.50
2023-03-31T10:47:03.698Z,82.80
2023-03-31T10:49:30.771Z,83.10
2023-03-31T10:51:59.577Z,83.20
2023-03-31T10:54:26.993Z,83.00
2023-03-31T10:57:05.849Z,82.40
2023-03-31T10:59:36.815Z,80.90
2023-03-31T11:02:10.151Z,78.00
2023-03-31T11:04:40.114Z,77.90
2023-03-31T11:07:10.513Z,78.10
2023-03-31T11:09:40.536Z,78.10
2023-03-31T11:12:10.168Z,78.10
2023-03-31T11:14:40.268Z,78.20
2023-03-31T11:17:13.099Z,78.60
2023-03-31T11:19:50.657Z,79.40
2023-03-31T11:22:24.083Z,80.00
2023-03-31T11:25:10.030Z,80.40
2023-03-31T11:27:55.525Z,80.00
2023-03-31T11:30:26.339Z,78.60
2023-03-31T11:33:08.556Z,76.40
2023-03-31T11:35:45.727Z,76.10
2023-03-31T11:38:18.726Z,75.50
2023-03-31T11:41:09.359Z,74.80
2023-03-31T11:43:48.835Z,73.80
2023-03-31T11:46:54.274Z,71.90
2023-03-31T11:49:24.626Z,70.80
2023-03-31T11:51:54.522Z,69.60
2023-03-31T11:54:28.411Z,68.80
2023-03-31T11:56:56.977Z,68.50
2023-03-31T11:59:27.863Z,68.00
2023-03-31T12:01:57.958Z,66.60
2023-03-31T12:04:37.494Z,66.20
2023-03-31T12:07:11.487Z,66.70
2023-03-31T12:09:44.156Z,66.80
2023-03-31T12:12:14.874Z,66.50
2023-03-31T12:14:47.411Z,65.40
2023-03-31T12:17:16.304Z,65.30
2023-03-31T12:19:51.965Z,65.00
2023-03-31T12:22:36.705Z,64.90
2023-03-31T12:25:03.735Z,65.00
2023-03-31T12:27:30.734Z,65.00
2023-03-31T12:29:59.588Z,65.10
2023-03-31T12:32:28.694Z,65.30
2023-03-31T12:35:02.311Z,65.60
2023-03-31T12:37:55.608Z,65.70
2023-03-31T12:40:58.025Z,65.90
2023-03-31T12:43:33.533Z,66.10
2023-03-31T12:46:19.237Z,66.40
2023-03-31T12:48:49.761Z,66.70
2023-03-31T12:51:28.209Z,66.70
2023-03-31T12:54:15.870Z,66.80
2023-03-31T12:57:03.175Z,66.90
2023-03-31T12:59:33.971Z,67.00
2023-03-31T13:02:10.007Z,66.80
2023-03-31T13:04:37.688Z,67.00
2023-03-31T13:07:14.462Z,67.10
2023-03-31T13:09:56.155Z,66.70
2023-03-31T13:12:24.310Z,66.50
2023-03-31T13:14:54.074Z,66.20
2023-03-31T13:17:23.644Z,66.20
2023-03-31T13:19:51.582Z,66.00
2023-03-31T13:22:35.948Z,65.60
2023-03-31T13:25:21.882Z,65.20
2023-03-31T13:27:50.055Z,64.20
2023-03-31T13:30:35.865Z,63.70
2023-03-31T13:33:10.362Z,63.40
2023-03-31T13:35:38.336Z,63.70
2023-03-31T13:38:22.984Z,63.70
2023-03-31T13:41:04.999Z,63.20
2023-03-31T13:43:31.894Z,62.80
2023-03-31T13:45:58.806Z,63.00
2023-03-31T13:48:28.827Z,63.00
2023-03-31T13:50:58.792Z,63.20
2023-03-31T13:53:28.831Z,63.40
2023-03-31T13:56:14.531Z,65.00
2023-03-31T13:58:41.446Z,65.90
2023-03-31T14:01:20.338Z,65.80
2023-03-31T14:03:53.656Z,66.30
2023-03-31T14:06:26.612Z,66.90
2023-03-31T14:08:55.850Z,67.60
2023-03-31T14:11:27.407Z,68.30
2023-03-31T14:14:07.312Z,69.00
2023-03-31T14:16:38.061Z,69.40
2023-03-31T14:19:23.748Z,69.90
2023-03-31T14:21:56.326Z,70.60
2023-03-31T14:24:37.136Z,71.20
2023-03-31T14:27:07.146Z,71.60
2023-03-31T14:29:36.983Z,72.00
2023-03-31T14:32:03.909Z,72.50
2023-03-31T14:34:31.043Z,72.70
2023-03-31T14:37:05.530Z,73.10
2023-03-31T14:39:35.486Z,73.30
2023-03-31T14:42:06.522Z,73.50
2023-03-31T14:44:34.145Z,73.80
2023-03-31T14:47:01.890Z,73.80
2023-03-31T14:49:39.002Z,73.80
2023-03-31T14:52:16.969Z,73.70
2023-03-31T14:54:44.617Z,73.60
2023-03-31T14:57:12.827Z,73.40
2023-03-31T14:59:39.924Z,73.20
2023-03-31T15:02:13.926Z,73.00
2023-03-31T15:04:45.219Z,72.80
2023-03-31T15:07:13.212Z,72.60
2023-03-31T15:09:40.796Z,72.60
2023-03-31T15:12:08.748Z,72.40
2023-03-31T15:14:37.020Z,72.30
2023-03-31T15:17:04.340Z,72.20
2023-03-31T15:19:33.793Z,71.90
2023-03-31T15:22:21.188Z,71.60
2023-03-31T15:24:48.089Z,71.60
2023-03-31T15:27:36.953Z,71.20
2023-03-31T15:30:22.479Z,71.00
2023-03-31T15:32:49.730Z,71.00
2023-03-31T15:35:23.078Z,70.70
2023-03-31T15:37:51.290Z,70.40
2023-03-31T15:40:27.458Z,70.10
2023-03-31T15:43:06.773Z,70.00
2023-03-31T15:45:46.482Z,69.90
2023-03-31T15:48:21.986Z,69.80
2023-03-31T15:50:49.006Z,69.40
2023-03-31T15:53:31.432Z,69.40
2023-03-31T15:56:02.808Z,69.30
2023-03-31T15:58:53.714Z,69.20
2023-03-31T16:01:21.276Z,68.90
2023-03-31T16:03:48.377Z,68.70
2023-03-31T16:06:19.632Z,68.70
2023-03-31T16:08:48.826Z,68.70
2023-03-31T16:11:18.999Z,68.40
2023-03-31T16:13:48.491Z,68.20
2023-03-31T16:16:17.335Z,67.90
2023-03-31T16:18:48.667Z,67.90
2023-03-31T16:21:20.680Z,67.50
2023-03-31T16:23:51.486Z,67.60
2023-03-31T16:26:23.239Z,67.40
2023-03-31T16:28:52.777Z,67.50
2023-03-31T16:31:35.148Z,67.40
2023-03-31T16:34:03.011Z,67.50
2023-03-31T16:36:30.069Z,67.30
2023-03-31T16:38:59.665Z,67.20
2023-03-31T16:41:29.107Z,67.30
2023-03-31T16:43:56.138Z,67.20
2023-03-31T16:46:23.722Z,67.20
2023-03-31T16:48:51.302Z,67.20
2023-03-31T16:51:18.395Z,67.20
2023-03-31T16:53:46.198Z,67.30
2023-03-31T16:56:13.969Z,67.30
2023-03-31T16:58:41.352Z,67.30
2023-03-31T17:01:08.895Z,67.30
2023-03-31T17:03:40.351Z,67.20
2023-03-31T17:06:12.531Z,67.30
2023-03-31T17:08:40.045Z,67.20
2023-03-31T17:11:12.811Z,67.10
2023-03-31T17:13:40.722Z,67.20
2023-03-31T17:16:16.257Z,67.20
2023-03-31T17:18:49.013Z,67.20
2023-03-31T17:21:18.788Z,67.10
2023-03-31T17:23:46.756Z,67.20
2023-03-31T17:26:14.222Z,67.20
2023-03-31T17:28:41.991Z,67.10
2023-03-31T17:31:12.200Z,67.20
2023-03-31T17:33:39.218Z,67.20
2023-03-31T17:36:09.065Z,67.20
2023-03-31T17:38:36.256Z,67.20
2023-03-31T17:41:06.805Z,67.20
2023-03-31T17:43:35.474Z,67.20
2023-03-31T17:46:04.555Z,67.20
2023-03-31T17:48:34.233Z,67.10
2023-03-31T17:51:06.373Z,67.20
2023-03-31T17:53:34.767Z,66.90
2023-03-31T17:56:02.815Z,66.90
2023-03-31T17:58:29.825Z,66.90
2023-03-31T18:00:57.523Z,66.90
2023-03-31T18:03:24.793Z,66.80
2023-03-31T18:05:51.790Z,66.80
2023-03-31T18:08:18.746Z,66.90
2023-03-31T18:10:46.233Z,66.90
2023-03-31T18:13:13.267Z,67.00
2023-03-31T18:15:45.729Z,67.00
2023-03-31T18:18:12.715Z,67.10
2023-03-31T18:20:40.070Z,67.20
2023-03-31T18:23:06.954Z,67.40
2023-03-31T18:25:34.203Z,67.50
2023-03-31T18:28:01.972Z,67.70
2023-03-31T18:30:28.986Z,67.80
2023-03-31T18:32:56.138Z,67.90
2023-03-31T18:35:26.088Z,68.00
2023-03-31T18:37:53.660Z,68.10
2023-03-31T18:40:20.563Z,68.20
2023-03-31T18:42:48.501Z,68.30
2023-03-31T18:45:17.865Z,68.30
2023-03-31T18:47:44.911Z,68.40
2023-03-31T18:50:13.713Z,68.40
2023-03-31T18:52:40.573Z,68.50
2023-03-31T18:55:07.870Z,68.60
2023-03-31T18:57:34.790Z,68.60
2023-03-31T19:00:01.892Z,68.60
2023-03-31T19:02:28.973Z,68.80
2023-03-31T19:04:59.071Z,68.70
2023-03-31T19:07:26.164Z,68.80
2023-03-31T19:09:53.243Z,68.90
2023-03-31T19:12:23.173Z,68.80
2023-03-31T19:14:50.417Z,68.90
2023-03-31T19:17:18.128Z,69.00
2023-03-31T19:19:46.116Z,69.10
2023-03-31T19:22:13.147Z,69.20
2023-03-31T19:24:40.216Z,69.40
2023-03-31T19:27:07.409Z,69.40
2023-03-31T19:29:35.420Z,69.40
2023-03-31T19:32:02.642Z,69.50
2023-03-31T19:34:29.695Z,69.60
2023-03-31T19:36:58.128Z,69.80
2023-03-31T19:39:26.856Z,70.00
2023-03-31T19:41:54.131Z,70.00
2023-03-31T19:44:21.045Z,70.00
2023-03-31T19:46:48.508Z,70.10
2023-03-31T19:49:16.757Z,70.20
2023-03-31T19:51:44.018Z,70.40
2023-03-31T19:54:11.455Z,70.50
2023-03-31T19:56:41.538Z,70.70
2023-03-31T19:59:09.020Z,70.80
2023-03-31T20:01:36.659Z,70.80
2023-03-31T20:04:04.138Z,71.20
2023-03-31T20:06:32.038Z,71.40
2023-03-31T20:09:00.138Z,71.80
2023-03-31T20:11:28.834Z,72.10
2023-03-31T20:13:56.366Z,72.30
2023-03-31T20:16:24.747Z,72.80
2023-03-31T20:19:04.392Z,73.00
2023-03-31T20:21:32.428Z,73.30
2023-03-31T20:23:59.785Z,73.70
2023-03-31T20:26:32.648Z,74.00
2023-03-31T20:29:02.727Z,74.10
2023-03-31T20:31:31.541Z,74.20
2023-03-31T20:33:58.740Z,74.20
2023-03-31T20:36:32.250Z,74.40
2023-03-31T20:39:00.130Z,74.50
2023-03-31T20:41:28.703Z,74.60
2023-03-31T20:43:56.132Z,74.70
2023-03-31T20:46:23.321Z,74.90
2023-03-31T20:48:51.559Z,75.00
2023-03-31T20:51:20.234Z,74.90
2023-03-31T20:53:49.076Z,75.00
2023-03-31T20:56:18.837Z,75.10
2023-03-31T20:58:46.186Z,75.10
2023-03-31T21:01:13.622Z,75.20
2023-03-31T21:03:41.289Z,75.20
2023-03-31T21:06:11.372Z,75.10
2023-03-31T21:08:39.193Z,75.20
2023-03-31T21:11:06.472Z,75.30
2023-03-31T21:13:34.005Z,75.40
2023-03-31T21:16:01.705Z,75.40
2023-03-31T21:18:29.940Z,75.40
2023-03-31T21:20:58.627Z,75.50
2023-03-31T21:23:26.237Z,75.50
2023-03-31T21:25:54.295Z,75.50
2023-03-31T21:28:22.286Z,75.40
2023-03-31T21:30:50.629Z,75.40
2023-03-31T21:33:17.846Z,75.40
2023-03-31T21:35:44.823Z,75.40
2023-03-31T21:38:12.257Z,75.40
2023-03-31T21:40:39.172Z,75.30
2023-03-31T21:43:06.426Z,75.30
2023-03-31T21:45:34.995Z,75.30
2023-03-31T21:48:02.310Z,75.30
2023-03-31T21:50:29.323Z,75.30
2023-03-31T21:52:56.223Z,75.20
2023-03-31T21:55:23.259Z,75.20
2023-03-31T21:57:50.284Z,75.20
2023-03-31T22:00:17.311Z,75.10
2023-03-31T22:02:44.323Z,75.00
2023-03-31T22:05:11.365Z,75.00
2023-03-31T22:07:38.290Z,74.90
2023-03-31T22:10:05.615Z,75.00
2023-03-31T22:12:32.655Z,75.00
2023-03-31T22:14:59.606Z,75.00
2023-03-31T22:17:26.622Z,75.10
2023-03-31T22:19:53.822Z,75.10
2023-03-31T22:22:20.920Z,75.00
2023-03-31T22:24:48.025Z,75.00
2023-03-31T22:27:15.011Z,74.90
2023-03-31T22:29:42.045Z,74.90
2023-03-31T22:32:08.968Z,74.80
2023-03-31T22:34:36.226Z,74.80
2023-03-31T22:37:03.221Z,74.80
2023-03-31T22:39:30.159Z,74.80
2023-03-31T22:41:57.010Z,74.80
2023-03-31T22:44:23.950Z,74.80
2023-03-31T22:46:51.212Z,74.70
2023-03-31T22:49:18.258Z,74.60
2023-03-31T22:51:45.353Z,74.70
2023-03-31T22:54:16.662Z,74.60
2023-03-31T22:56:44.440Z,74.60
2023-03-31T22:59:11.884Z,74.40
2023-03-31T23:01:38.855Z,74.40
2023-03-31T23:04:06.796Z,74.50
2023-03-31T23:06:35.559Z,74.60
2023-03-31T23:09:03.095Z,74.40
2023-03-31T23:11:30.626Z,74.40
2023-03-31T23:13:57.609Z,74.60
2023-03-31T23:16:25.848Z,74.50
2023-03-31T23:18:53.825Z,74.30
2023-03-31T23:21:22.790Z,74.30
2023-03-31T23:23:51.482Z,74.30
2023-03-31T23:26:19.289Z,74.10
2023-03-31T23:28:50.038Z,74.20
2023-03-31T23:31:18.808Z,74.30
2023-03-31T23:33:45.982Z,74.40
2023-03-31T23:36:17.243Z,74.50
2023-03-31T23:38:44.905Z,74.50
2023-03-31T23:41:12.427Z,74.60
2023-03-31T23:43:39.671Z,74.80
2023-03-31T23:46:07.518Z,74.90
2023-03-31T23:48:35.365Z,75.00
2023-03-31T23:51:02.917Z,75.20
2023-03-31T23:53:30.757Z,75.30
2023-03-31T23:56:06.113Z,75.40
2023-03-31T23:58:33.398Z,75.40
